Friday, October 19, 2018, 7:12 AM GMT
Back to Local

CYZX, Greenwood, N. S.

Location: , , Canada Lat: 44.983
Local Time: 7:12 AM GMT ( 7:12 GMT) Lon: -64.917
Time Zone: GMT Elev: 91 ft

Show me the last for .
Show Decoded

2018-10-19 07:00 METAR CYZX 190700Z 29011G20KT 15SM SKC 01/M05 A3006 RMK SLP182 =
2018-10-19 06:00 METAR CYZX 190600Z 30013G24KT 15SM SKC 00/M04 A3005 RMK SLP179 =
2018-10-19 05:00 METAR CYZX 190500Z 31020G25KT 15SM FEW040 01/M04 A3005 RMK SC1 SLP177 =
2018-10-19 04:00 METAR CYZX 190400Z 31014G24KT 15SM FEW040 02/M02 A3003 RMK SC2 SLP172 =
2018-10-19 03:00 METAR CYZX 190300Z 29018G27KT 15SM SCT060 02/M00 A3003 RMK SC4 SLP171 =
2018-10-19 02:00 METAR CYZX 190200Z 30019G24KT 15SM SCT060 03/02 A3002 RMK SC4 SLP168 =
2018-10-19 01:00 METAR CYZX 190100Z 30024G30KT 15SM BKN060 04/02 A3000 RMK SC5 SLP161 =
2018-10-19 00:00 METAR CYZX 190000Z 29020G26KT 15SM BKN060 04/03 A2996 RMK SC5 SLP147 =
2018-10-18 23:00 METAR CYZX 182300Z 30022KT 15SM BKN060 04/M02 A2993 RMK SC5 SLP137 =
2018-10-18 22:00 METAR CYZX 182200Z 30020G33KT 15SM BKN055 BKN070 04/M01 A2989 RMK SC5AC2 SLP123
                 =
2018-10-18 21:00 METAR CYZX 182100Z CCA 30024G32KT 15SM BKN055 04/M07 A2984 RMK SC7 SLP106 =
2018-10-18 20:00 METAR CYZX 182000Z 30019G32KT 15SM -SHSNGS BKN055 04/M05 A2981 RMK SC7 PCPN VRY
                 LGT SLP095 =
2018-10-18 19:00 METAR CYZX 181900Z 30024KT 15SM -SHSNGS SCT030 BKN050 04/M05 A2979 RMK SC4SC3
                 PCPN VRY LGT SLP087 =
2018-10-18 18:00 METAR CYZX 181800Z 29017G34KT 10SM -SHSNGS BKN055 05/M05 A2976 RMK SC7 SLP078 =
2018-10-18 17:35 METAR CYZX 181735Z 30018G32KT 15SM -SHSNGS BKN055 04/M05 A2976 RMK SC7 PCPN VRY
                 LGT SLP078 =
2018-10-18 17:06 METAR CYZX 181706Z 30020G37KT 15SM -SHGS BKN055 05/M06 A2975 RMK SC7 PCPN VRY
                 LGT SLP075 =
2018-10-18 17:00 METAR CYZX 181700Z 30024G34KT 15SM BKN055 05/M06 A2975 RMK SC7 SLP075 =
2018-10-18 16:52 METAR CYZX 181652Z 29024G34KT 15SM BKN055 05/M06 A2975 RMK SC7 SLP074 =
2018-10-18 16:43 METAR CYZX 181643Z 29022G41KT 15SM -SHGS BKN055 05/M04 A2975 RMK SC7 PCPN VRY
                 LGT SLP074 =
2018-10-18 16:13 METAR CYZX 181613Z 31017G33KT 15SM BKN060 05/M05 A2975 RMK SC7 SLP074 =
2018-10-18 16:00 METAR CYZX 181600Z 30020G32KT 15SM -SHGS BKN050 05/M05 A2974 RMK SC7 PCPN VRY
                 LGT SLP073 =
2018-10-18 15:35 METAR CYZX 181535Z 29025G33KT 15SM -SHGS BKN050 04/M04 A2975 RMK SC7 SLP075 =
2018-10-18 15:00 METAR CYZX 181500Z 29022G30KT 15SM BKN050 04/M04 A2975 RMK SC7 SLP075 =
2018-10-18 14:00 METAR CYZX 181400Z 30019G29KT 15SM BKN040 04/M02 A2974 RMK SC7 SLP072 =
2018-10-18 13:00 METAR CYZX 181300Z 30022G30KT 15SM BKN040 04/M02 A2973 RMK SC6 SLP069 =
2018-10-18 12:00 METAR CYZX 181200Z 30018G26KT 15SM SCT030 BKN080 04/M03 A2972 RMK SC3AC2 SLP065
                 =
2018-10-18 11:00 METAR CYZX 181100Z 29012G20KT 15SM SCT030 BKN120 03/00 A2970 RMK SC3AC2 SLP059 =
2018-10-18 10:00 METAR CYZX 181000Z 30016G28KT 15SM FEW028 BKN034 BKN110 04/M01 A2969 RMK
                 SC2SC2AC2 SLP054 =
2018-10-18 09:00 METAR CYZX 180900Z 28019G25KT 15SM SCT028 BKN034 05/00 A2967 RMK SC3SC3 SLP048 =
2018-10-18 08:00 METAR CYZX 180800Z 29013G21KT 15SM SCT022 BKN047 05/01 A2965 RMK SC3SC3 SLP041 =

Support USWX by starting your Amazon purchase here.